Time;durP1;ratioP1;P1;durP2;ratioP2;P2;SDS_P1;SDS_P2;PMS_P1;PMS_P2;Temp;Humidity;BMP_temperature;BMP_pressure;BME280_temperature;BME280_humidity;BME280_pressure;Samples;Min_cycle;Max_cycle;Signal;HPM_P1;HPM_P2
2024/02/21 00:00:18;;;;;;;8.48;7.65;;;;;;;;;;2071842;28;20027;-80
2024/02/21 00:01:37;;;;;;;7.30;6.55;;;;;;;;;;2068910;28;20501;-80
2024/02/21 00:02:59;;;;;;;7.43;6.60;;;;;;;;;;2071158;28;20628;-80
2024/02/21 00:04:18;;;;;;;7.78;6.47;;;;;;;;;;2071003;28;20105;-79
2024/02/21 00:05:37;;;;;;;6.40;5.80;;;;;;;;;;2070734;28;20033;-80
2024/02/21 00:06:55;;;;;;;6.88;6.18;;;;;;;;;;2070996;28;20034;-81
2024/02/21 00:08:14;;;;;;;8.30;7.13;;;;;;;;;;2070543;28;20030;-80
2024/02/21 00:09:34;;;;;;;8.20;7.40;;;;;;;;;;2071648;28;20054;-80
2024/02/21 00:10:53;;;;;;;7.10;6.40;;;;;;;;;;2071059;28;20042;-81
2024/02/21 00:12:13;;;;;;;7.75;6.10;;;;;;;;;;2071305;28;20038;-81
2024/02/21 00:13:32;;;;;;;7.55;6.75;;;;;;;;;;2071508;28;20062;-80
2024/02/21 00:14:51;;;;;;;7.93;6.80;;;;;;;;;;2069601;28;20037;-82
2024/02/21 00:16:11;;;;;;;7.45;6.35;;;;;;;;;;2071173;28;20124;-79
2024/02/21 00:17:30;;;;;;;6.70;5.95;;;;;;;;;;2069625;28;20041;-80
2024/02/21 00:18:48;;;;;;;9.57;7.13;;;;;;;;;;2070056;28;20509;-80
2024/02/21 00:20:08;;;;;;;6.80;6.10;;;;;;;;;;2072561;28;20050;-80
2024/02/21 00:21:27;;;;;;;9.57;6.85;;;;;;;;;;2070197;28;20548;-79
2024/02/21 00:22:46;;;;;;;7.65;6.93;;;;;;;;;;2070130;28;20057;-80
2024/02/21 00:24:05;;;;;;;8.02;6.95;;;;;;;;;;2070251;28;20038;-80
2024/02/21 00:25:24;;;;;;;7.45;6.68;;;;;;;;;;2075207;28;20540;-80
2024/02/21 00:26:43;;;;;;;8.10;7.18;;;;;;;;;;2073822;28;20037;-79
2024/02/21 00:28:02;;;;;;;8.02;6.60;;;;;;;;;;2070654;28;20033;-79
2024/02/21 00:29:21;;;;;;;7.43;6.65;;;;;;;;;;2070949;28;20109;-79
2024/02/21 00:30:39;;;;;;;7.20;6.40;;;;;;;;;;2068622;28;20022;-80
2024/02/21 00:31:58;;;;;;;6.90;6.28;;;;;;;;;;2070641;28;20027;-80
2024/02/21 00:33:17;;;;;;;6.13;5.63;;;;;;;;;;2071222;28;20038;-79
2024/02/21 00:34:36;;;;;;;6.32;5.72;;;;;;;;;;2069675;28;20030;-80
2024/02/21 00:35:55;;;;;;;7.03;6.13;;;;;;;;;;2070603;28;20033;-80
2024/02/21 00:37:14;;;;;;;6.43;5.82;;;;;;;;;;2070946;28;20038;-79
2024/02/21 00:38:33;;;;;;;6.88;6.18;;;;;;;;;;2069841;28;20037;-80
2024/02/21 00:39:53;;;;;;;11.48;6.50;;;;;;;;;;2070123;28;20035;-80
2024/02/21 00:41:12;;;;;;;6.63;6.03;;;;;;;;;;2067398;28;20030;-81
2024/02/21 00:42:31;;;;;;;7.20;5.97;;;;;;;;;;2067130;28;20113;-80
2024/02/21 00:43:50;;;;;;;6.75;6.05;;;;;;;;;;2067021;28;20034;-80
2024/02/21 00:45:09;;;;;;;8.93;7.15;;;;;;;;;;2070465;28;20505;-80
2024/02/21 00:46:28;;;;;;;7.18;6.47;;;;;;;;;;2070996;28;20030;-80
2024/02/21 00:47:47;;;;;;;6.93;6.28;;;;;;;;;;2068520;28;20507;-79
2024/02/21 00:49:06;;;;;;;8.70;6.60;;;;;;;;;;2066722;28;20034;-80
2024/02/21 00:50:25;;;;;;;6.70;6.10;;;;;;;;;;2070794;28;20061;-81
2024/02/21 00:51:44;;;;;;;7.85;6.60;;;;;;;;;;2070222;28;20497;-81
2024/02/21 00:53:03;;;;;;;6.90;6.20;;;;;;;;;;2071252;28;20046;-81
2024/02/21 00:54:22;;;;;;;10.48;6.85;;;;;;;;;;2070644;28;20033;-81
2024/02/21 00:55:43;;;;;;;7.75;6.95;;;;;;;;;;2068411;28;20412;-81
2024/02/21 00:57:02;;;;;;;7.80;6.70;;;;;;;;;;2069750;28;20508;-81
2024/02/21 00:58:21;;;;;;;7.38;6.68;;;;;;;;;;2071233;28;20038;-81
2024/02/21 00:59:41;;;;;;;7.05;6.32;;;;;;;;;;2071964;28;20026;-81
2024/02/21 01:01:01;;;;;;;6.68;6.07;;;;;;;;;;2072056;28;20030;-81
2024/02/21 01:02:20;;;;;;;7.38;6.57;;;;;;;;;;2069601;28;20357;-82
2024/02/21 01:03:39;;;;;;;7.03;6.32;;;;;;;;;;2069618;28;20449;-79
2024/02/21 01:04:59;;;;;;;5.95;5.35;;;;;;;;;;2065938;28;20034;-79
2024/02/21 01:06:21;;;;;;;6.55;5.95;;;;;;;;;;2070459;28;20096;-79
2024/02/21 01:07:40;;;;;;;6.75;6.05;;;;;;;;;;2069721;28;20050;-80
2024/02/21 01:08:59;;;;;;;6.30;5.63;;;;;;;;;;2071239;28;20030;-80
2024/02/21 01:10:18;;;;;;;6.05;5.45;;;;;;;;;;2072515;28;20584;-78
2024/02/21 01:11:36;;;;;;;7.22;5.90;;;;;;;;;;2071378;28;20023;-78
2024/02/21 01:12:56;;;;;;;6.97;5.57;;;;;;;;;;2069199;28;20477;-79
2024/02/21 01:14:16;;;;;;;5.88;5.38;;;;;;;;;;2069974;28;20026;-79
2024/02/21 01:15:35;;;;;;;7.10;5.85;;;;;;;;;;2071345;28;20033;-79
2024/02/21 01:16:55;;;;;;;8.07;6.00;;;;;;;;;;2070723;28;20030;-78
2024/02/21 01:18:14;;;;;;;7.35;5.90;;;;;;;;;;2068139;28;20120;-79
2024/02/21 01:19:34;;;;;;;6.68;5.93;;;;;;;;;;2070608;28;20081;-80
2024/02/21 01:20:52;;;;;;;6.50;5.90;;;;;;;;;;2070464;28;20038;-80
2024/02/21 01:22:11;;;;;;;6.18;5.53;;;;;;;;;;2069536;28;20043;-79
2024/02/21 01:23:30;;;;;;;5.93;5.32;;;;;;;;;;2070279;28;20520;-79
2024/02/21 01:24:49;;;;;;;10.27;6.18;;;;;;;;;;2071022;28;20038;-79
2024/02/21 01:26:12;;;;;;;8.05;5.97;;;;;;;;;;2070651;28;20041;-79
2024/02/21 01:27:32;;;;;;;6.97;5.70;;;;;;;;;;2071531;28;20117;-79
2024/02/21 01:28:51;;;;;;;7.68;5.97;;;;;;;;;;2070766;28;20029;-80
2024/02/21 01:30:13;;;;;;;7.22;5.40;;;;;;;;;;2071647;28;20026;-81
2024/02/21 01:31:32;;;;;;;11.23;6.27;;;;;;;;;;2071348;28;20113;-78
2024/02/21 01:32:51;;;;;;;12.95;5.65;;;;;;;;;;2070422;28;20228;-78
2024/02/21 01:34:10;;;;;;;17.45;6.35;;;;;;;;;;2071070;28;20030;-79
2024/02/21 01:35:28;;;;;;;6.93;5.78;;;;;;;;;;2064021;28;20034;-79
2024/02/21 01:36:48;;;;;;;12.25;5.75;;;;;;;;;;2067530;28;20286;-78
2024/02/21 01:38:08;;;;;;;8.68;5.85;;;;;;;;;;2071085;28;20029;-79
2024/02/21 01:39:28;;;;;;;8.52;5.85;;;;;;;;;;2070693;28;20530;-79
2024/02/21 01:40:47;;;;;;;7.28;5.63;;;;;;;;;;2071299;28;20018;-79
2024/02/21 01:42:06;;;;;;;7.93;6.57;;;;;;;;;;2070177;28;20108;-80
2024/02/21 01:43:25;;;;;;;18.65;7.18;;;;;;;;;;2069904;28;20549;-80
2024/02/21 01:44:44;;;;;;;13.18;6.65;;;;;;;;;;2068698;28;20648;-80
2024/02/21 01:46:03;;;;;;;12.68;6.82;;;;;;;;;;2069504;28;20026;-80
2024/02/21 01:47:23;;;;;;;14.20;6.80;;;;;;;;;;2069646;28;20513;-80
2024/02/21 01:48:43;;;;;;;21.02;7.95;;;;;;;;;;2067181;28;20460;-80
2024/02/21 01:50:02;;;;;;;17.08;7.40;;;;;;;;;;2069015;28;20030;-80
2024/02/21 01:51:21;;;;;;;19.48;7.80;;;;;;;;;;2070736;28;20042;-79
2024/02/21 01:52:40;;;;;;;15.18;7.15;;;;;;;;;;2070338;28;20026;-79
2024/02/21 01:53:59;;;;;;;14.75;7.03;;;;;;;;;;2068866;28;20600;-79
2024/02/21 01:55:20;;;;;;;16.50;6.38;;;;;;;;;;2070333;28;20034;-79
2024/02/21 01:56:39;;;;;;;12.50;7.10;;;;;;;;;;2068598;28;20039;-80
2024/02/21 01:57:58;;;;;;;15.95;6.85;;;;;;;;;;2068074;28;20389;-79
2024/02/21 01:59:18;;;;;;;17.73;8.25;;;;;;;;;;2070614;28;20544;-79
2024/02/21 02:00:38;;;;;;;14.57;7.65;;;;;;;;;;2070330;28;20033;-79
2024/02/21 02:01:58;;;;;;;19.02;6.97;;;;;;;;;;2069809;28;20033;-80
2024/02/21 02:03:17;;;;;;;12.13;7.30;;;;;;;;;;2069301;28;20070;-79
2024/02/21 02:04:38;;;;;;;17.15;7.82;;;;;;;;;;2069806;28;20026;-79
2024/02/21 02:05:56;;;;;;;12.13;7.00;;;;;;;;;;2070017;28;20038;-78
2024/02/21 02:07:15;;;;;;;17.67;7.05;;;;;;;;;;2069591;28;20026;-79
2024/02/21 02:08:34;;;;;;;18.60;7.78;;;;;;;;;;2070104;28;20026;-79
2024/02/21 02:09:53;;;;;;;16.35;7.40;;;;;;;;;;2069295;28;20022;-79
2024/02/21 02:11:13;;;;;;;13.75;7.57;;;;;;;;;;2069937;28;20033;-79
2024/02/21 02:12:32;;;;;;;15.40;7.88;;;;;;;;;;2071517;28;20112;-80
2024/02/21 02:13:51;;;;;;;18.27;7.72;;;;;;;;;;2067547;28;20031;-79
2024/02/21 02:15:10;;;;;;;11.85;7.35;;;;;;;;;;2066348;28;20062;-79
2024/02/21 02:16:29;;;;;;;17.70;7.22;;;;;;;;;;2069904;28;20042;-81
2024/02/21 02:17:48;;;;;;;12.98;7.20;;;;;;;;;;2069426;28;20022;-81
2024/02/21 02:19:12;;;;;;;16.73;7.40;;;;;;;;;;2069569;28;20034;-81
2024/02/21 02:20:31;;;;;;;16.83;7.15;;;;;;;;;;2069879;28;20026;-81
2024/02/21 02:21:54;;;;;;;18.90;7.93;;;;;;;;;;2070877;28;20022;-80
2024/02/21 02:23:25;;;;;;;19.30;8.07;;;;;;;;;;2070431;28;20033;-80
2024/02/21 02:24:44;;;;;;;16.60;7.82;;;;;;;;;;2069487;28;20025;-76
2024/02/21 02:26:03;;;;;;;12.30;7.40;;;;;;;;;;2070425;28;20034;-77
2024/02/21 02:27:22;;;;;;;14.27;7.90;;;;;;;;;;2069097;28;20481;-78
2024/02/21 02:28:42;;;;;;;14.30;7.45;;;;;;;;;;2070190;28;20042;-76
2024/02/21 02:30:02;;;;;;;23.70;8.85;;;;;;;;;;2069967;28;20481;-78
2024/02/21 02:31:21;;;;;;;16.88;7.78;;;;;;;;;;2069339;28;20109;-76
2024/02/21 02:32:44;;;;;;;14.82;8.32;;;;;;;;;;2069847;28;20026;-75
2024/02/21 02:34:03;;;;;;;19.33;8.90;;;;;;;;;;2068049;28;20022;-77
2024/02/21 02:35:22;;;;;;;17.02;8.77;;;;;;;;;;2070860;28;20030;-77
2024/02/21 02:36:41;;;;;;;17.38;8.32;;;;;;;;;;2070323;28;20026;-77
2024/02/21 02:38:01;;;;;;;14.95;7.57;;;;;;;;;;2069607;28;20512;-75
2024/02/21 02:39:20;;;;;;;16.38;8.45;;;;;;;;;;2075666;28;20045;-76
2024/02/21 02:40:40;;;;;;;15.85;8.10;;;;;;;;;;2069638;28;20018;-75
2024/02/21 02:41:59;;;;;;;21.20;8.85;;;;;;;;;;2069912;28;20026;-76
2024/02/21 02:43:19;;;;;;;19.10;8.75;;;;;;;;;;2069488;28;20026;-76
2024/02/21 02:44:38;;;;;;;19.25;8.32;;;;;;;;;;2069096;28;20022;-76
2024/02/21 02:45:57;;;;;;;21.73;9.43;;;;;;;;;;2070386;28;20050;-76
2024/02/21 02:47:16;;;;;;;24.90;9.95;;;;;;;;;;2070022;28;20022;-77
2024/02/21 02:48:35;;;;;;;19.75;9.05;;;;;;;;;;2070005;28;20038;-76
2024/02/21 02:49:54;;;;;;;20.73;9.27;;;;;;;;;;2069023;28;20023;-75
2024/02/21 02:51:13;;;;;;;24.67;11.35;;;;;;;;;;2070309;28;20030;-76
2024/02/21 02:52:32;;;;;;;23.95;9.82;;;;;;;;;;2070143;28;20022;-76
2024/02/21 02:53:51;;;;;;;23.83;9.57;;;;;;;;;;2070285;28;20022;-76
2024/02/21 02:55:10;;;;;;;20.60;9.68;;;;;;;;;;2069919;28;20038;-76
2024/02/21 02:56:30;;;;;;;21.88;8.90;;;;;;;;;;2069490;28;20050;-76
2024/02/21 02:57:48;;;;;;;21.17;10.05;;;;;;;;;;2070210;28;20108;-78
2024/02/21 02:59:08;;;;;;;24.77;9.85;;;;;;;;;;2070725;28;20034;-75
2024/02/21 03:00:27;;;;;;;16.60;9.10;;;;;;;;;;2069592;28;20493;-76
2024/02/21 03:01:46;;;;;;;16.08;8.98;;;;;;;;;;2070512;28;20041;-77
2024/02/21 03:03:05;;;;;;;20.60;9.82;;;;;;;;;;2068255;28;20496;-77
2024/02/21 03:04:25;;;;;;;18.73;9.32;;;;;;;;;;2065983;28;20030;-77
2024/02/21 03:05:45;;;;;;;18.90;9.60;;;;;;;;;;2070375;28;20389;-75
2024/02/21 03:07:03;;;;;;;22.90;10.05;;;;;;;;;;2068458;28;20034;-75
2024/02/21 03:08:22;;;;;;;22.38;10.43;;;;;;;;;;2067217;28;20524;-77
2024/02/21 03:09:42;;;;;;;18.63;9.63;;;;;;;;;;2069343;28;20065;-77
2024/02/21 03:11:01;;;;;;;18.25;9.43;;;;;;;;;;2069933;28;20026;-76
2024/02/21 03:12:27;;;;;;;16.30;8.80;;;;;;;;;;2068620;28;20026;-76
2024/02/21 03:13:46;;;;;;;19.88;9.00;;;;;;;;;;2069554;28;20508;-76
2024/02/21 03:15:05;;;;;;;16.17;8.60;;;;;;;;;;2070287;28;20477;-76
2024/02/21 03:16:24;;;;;;;13.88;8.38;;;;;;;;;;2069770;28;20021;-76
2024/02/21 03:17:43;;;;;;;17.42;9.25;;;;;;;;;;2071541;28;20469;-75
2024/02/21 03:19:03;;;;;;;15.35;8.55;;;;;;;;;;2068997;28;20038;-75
2024/02/21 03:20:23;;;;;;;12.32;7.97;;;;;;;;;;2069019;28;20033;-77
2024/02/21 03:21:42;;;;;;;16.77;8.00;;;;;;;;;;2070582;28;20021;-77
2024/02/21 03:23:01;;;;;;;11.65;7.45;;;;;;;;;;2070274;28;20034;-76
2024/02/21 03:24:20;;;;;;;13.20;7.25;;;;;;;;;;2069574;28;20477;-76
2024/02/21 03:25:39;;;;;;;9.43;6.30;;;;;;;;;;2070132;28;20478;-77
2024/02/21 03:26:58;;;;;;;9.68;6.30;;;;;;;;;;2070011;28;20077;-76
2024/02/21 03:28:17;;;;;;;10.60;6.78;;;;;;;;;;2071706;28;20525;-76
2024/02/21 03:29:36;;;;;;;8.75;6.55;;;;;;;;;;2071211;28;20478;-76
2024/02/21 03:30:55;;;;;;;10.70;6.35;;;;;;;;;;2071304;28;20560;-77
2024/02/21 03:32:14;;;;;;;9.18;5.85;;;;;;;;;;2071040;28;20041;-77
2024/02/21 03:33:33;;;;;;;9.73;6.00;;;;;;;;;;2072333;28;20030;-77
2024/02/21 03:34:52;;;;;;;10.00;5.80;;;;;;;;;;2071863;28;20033;-77
2024/02/21 03:36:15;;;;;;;9.75;5.78;;;;;;;;;;2071301;28;20481;-76
2024/02/21 03:37:34;;;;;;;;;;;;;;;;;;2071564;28;20021;-77
2024/02/21 03:38:54;;;;;;;8.70;4.80;;;;;;;;;;2071866;28;19905;-75
2024/02/21 03:40:12;;;;;;;6.13;5.10;;;;;;;;;;2069939;28;20042;-77
2024/02/21 03:41:32;;;;;;;6.93;4.75;;;;;;;;;;2071155;28;20035;-75
2024/02/21 03:42:51;;;;;;;6.55;5.15;;;;;;;;;;2072315;28;20029;-75
2024/02/21 03:44:10;;;;;;;9.32;5.38;;;;;;;;;;2070418;28;20030;-80
2024/02/21 03:45:29;;;;;;;6.50;5.18;;;;;;;;;;2072122;28;20421;-81
2024/02/21 03:46:49;;;;;;;6.47;4.70;;;;;;;;;;2071219;28;20109;-81
2024/02/21 03:48:09;;;;;;;6.22;4.97;;;;;;;;;;2071168;28;20030;-81
2024/02/21 03:49:28;;;;;;;6.28;4.50;;;;;;;;;;2071402;28;20054;-81
2024/02/21 03:50:47;;;;;;;5.18;4.47;;;;;;;;;;2071438;28;20065;-82
2024/02/21 03:52:06;;;;;;;6.43;4.68;;;;;;;;;;2071864;28;20042;-83
2024/02/21 03:53:28;;;;;;;6.60;4.72;;;;;;;;;;2072000;28;20022;-82
2024/02/21 03:54:46;;;;;;;7.95;4.50;;;;;;;;;;2069553;28;20049;-79
2024/02/21 03:56:07;;;;;;;4.93;4.35;;;;;;;;;;2071225;28;20070;-81
2024/02/21 03:57:25;;;;;;;6.70;4.60;;;;;;;;;;2070594;28;20026;-80
2024/02/21 03:58:46;;;;;;;5.03;3.72;;;;;;;;;;2071540;28;20030;-82
2024/02/21 04:00:07;;;;;;;5.30;4.32;;;;;;;;;;2071230;28;20030;-81
2024/02/21 04:01:26;;;;;;;6.13;4.32;;;;;;;;;;2073679;28;20116;-80
2024/02/21 04:02:45;;;;;;;5.60;4.35;;;;;;;;;;2070968;28;20030;-79
2024/02/21 04:04:04;;;;;;;5.80;4.35;;;;;;;;;;2071389;28;20046;-81
2024/02/21 04:05:23;;;;;;;6.00;5.07;;;;;;;;;;2072074;28;20451;-81
2024/02/21 04:06:46;;;;;;;6.70;4.18;;;;;;;;;;2071454;28;20473;-81
2024/02/21 04:08:05;;;;;;;7.78;4.60;;;;;;;;;;2070182;28;20042;-81
2024/02/21 04:09:24;;;;;;;6.95;3.42;;;;;;;;;;2070830;28;20525;-81
2024/02/21 04:10:43;;;;;;;4.75;3.92;;;;;;;;;;2071008;28;20033;-81
2024/02/21 04:12:04;;;;;;;5.32;3.80;;;;;;;;;;2071118;28;20034;-80
2024/02/21 04:13:23;;;;;;;4.15;3.67;;;;;;;;;;2069450;28;20022;-80
2024/02/21 04:14:42;;;;;;;5.80;3.50;;;;;;;;;;2069181;28;20026;-81
2024/02/21 04:16:01;;;;;;;4.80;3.42;;;;;;;;;;2070634;28;20031;-80
2024/02/21 04:17:20;;;;;;;5.28;3.90;;;;;;;;;;2070862;28;20022;-80
2024/02/21 04:18:39;;;;;;;5.32;3.45;;;;;;;;;;2070156;28;20038;-80
2024/02/21 04:20:05;;;;;;;4.57;4.07;;;;;;;;;;2070650;28;20113;-81
2024/02/21 04:21:24;;;;;;;5.45;3.45;;;;;;;;;;2070649;28;20448;-81
2024/02/21 04:22:44;;;;;;;7.88;4.18;;;;;;;;;;2072089;28;20493;-82
2024/02/21 04:24:05;;;;;;;3.92;3.38;;;;;;;;;;2070435;28;20506;-79
2024/02/21 04:25:24;;;;;;;4.47;3.30;;;;;;;;;;2070678;28;20035;-81
2024/02/21 04:26:44;;;;;;;8.85;3.70;;;;;;;;;;2071259;28;20021;-81
2024/02/21 04:28:04;;;;;;;7.32;3.50;;;;;;;;;;2070557;28;20034;-80
2024/02/21 04:29:23;;;;;;;5.57;3.72;;;;;;;;;;2070014;28;20034;-81
2024/02/21 04:30:43;;;;;;;8.38;3.60;;;;;;;;;;2070835;28;20014;-80
2024/02/21 04:32:02;;;;;;;5.40;3.53;;;;;;;;;;2070463;28;20053;-81
2024/02/21 04:33:21;;;;;;;5.50;3.70;;;;;;;;;;2069819;28;20026;-79
2024/02/21 04:34:41;;;;;;;5.40;3.58;;;;;;;;;;2071386;28;20026;-80
2024/02/21 04:36:00;;;;;;;5.10;3.17;;;;;;;;;;2070811;28;20033;-81
2024/02/21 04:37:20;;;;;;;5.65;3.40;;;;;;;;;;2071294;28;20105;-81
2024/02/21 04:38:41;;;;;;;7.00;3.28;;;;;;;;;;2070202;28;20504;-80
2024/02/21 04:40:01;;;;;;;6.32;3.45;;;;;;;;;;2066658;28;20038;-81
2024/02/21 04:41:20;;;;;;;3.80;3.38;;;;;;;;;;2066815;28;20113;-81
2024/02/21 04:42:39;;;;;;;5.13;3.15;;;;;;;;;;2068126;28;20030;-82
2024/02/21 04:43:58;;;;;;;5.32;3.35;;;;;;;;;;2070159;28;20033;-81
2024/02/21 04:45:17;;;;;;;10.32;3.60;;;;;;;;;;2070851;28;20038;-82
2024/02/21 04:46:36;;;;;;;8.45;3.35;;;;;;;;;;2070062;28;20026;-80
2024/02/21 04:47:55;;;;;;;6.82;3.85;;;;;;;;;;2071129;28;20023;-81
2024/02/21 04:49:14;;;;;;;3.47;3.10;;;;;;;;;;2070342;28;20071;-80
2024/02/21 04:50:33;;;;;;;6.65;3.58;;;;;;;;;;2067902;28;20022;-80
2024/02/21 04:51:52;;;;;;;7.32;3.30;;;;;;;;;;2071040;28;20042;-80
2024/02/21 04:53:10;;;;;;;8.05;3.75;;;;;;;;;;2071873;28;20041;-80
2024/02/21 04:54:29;;;;;;;8.20;3.65;;;;;;;;;;2070481;28;20098;-80
2024/02/21 04:55:48;;;;;;;6.97;3.75;;;;;;;;;;2069417;28;20033;-80
2024/02/21 04:57:10;;;;;;;13.80;4.40;;;;;;;;;;2071749;28;20038;-81
2024/02/21 04:58:29;;;;;;;5.85;3.53;;;;;;;;;;2071761;28;20969;-81
2024/02/21 04:59:48;;;;;;;4.63;3.47;;;;;;;;;;2070242;28;20495;-80
2024/02/21 05:01:07;;;;;;;5.80;3.40;;;;;;;;;;2070827;28;20041;-83
2024/02/21 05:02:27;;;;;;;7.70;3.90;;;;;;;;;;2071706;28;20548;-81
2024/02/21 05:03:46;;;;;;;8.63;3.88;;;;;;;;;;2069778;28;20030;-81
2024/02/21 05:05:05;;;;;;;9.35;4.30;;;;;;;;;;2069585;28;20042;-81
2024/02/21 05:06:24;;;;;;;9.02;5.00;;;;;;;;;;2069161;28;20038;-81
2024/02/21 05:07:43;;;;;;;7.80;3.78;;;;;;;;;;2070611;28;20030;-80
2024/02/21 05:09:03;;;;;;;10.77;4.43;;;;;;;;;;2069120;28;20045;-81
2024/02/21 05:10:21;;;;;;;11.23;3.95;;;;;;;;;;2069652;28;20338;-80
2024/02/21 05:11:40;;;;;;;5.32;3.40;;;;;;;;;;2070235;28;20034;-81
2024/02/21 05:12:59;;;;;;;8.27;3.88;;;;;;;;;;2070765;28;20030;-81
2024/02/21 05:14:18;;;;;;;7.85;3.85;;;;;;;;;;2070420;28;20038;-80
2024/02/21 05:15:37;;;;;;;9.25;4.25;;;;;;;;;;2070628;28;20037;-82
2024/02/21 05:16:57;;;;;;;9.38;4.55;;;;;;;;;;2069946;28;20061;-81
2024/02/21 05:18:15;;;;;;;10.35;4.30;;;;;;;;;;2070505;28;20030;-82
2024/02/21 05:19:34;;;;;;;8.93;4.57;;;;;;;;;;2071611;28;20037;-80
2024/02/21 05:20:54;;;;;;;5.60;3.97;;;;;;;;;;2070256;28;20393;-79
2024/02/21 05:22:13;;;;;;;7.07;3.72;;;;;;;;;;2069076;28;20105;-78
2024/02/21 05:23:32;;;;;;;11.18;4.13;;;;;;;;;;2064402;28;20465;-81
2024/02/21 05:24:51;;;;;;;9.18;4.45;;;;;;;;;;2066652;28;20030;-79
2024/02/21 05:26:10;;;;;;;6.82;4.00;;;;;;;;;;2068107;28;20505;-81
2024/02/21 05:27:29;;;;;;;10.70;4.20;;;;;;;;;;2075077;28;20037;-82
2024/02/21 05:28:47;;;;;;;15.25;4.05;;;;;;;;;;2074209;28;20512;-81
2024/02/21 05:30:07;;;;;;;8.90;3.70;;;;;;;;;;2071201;28;20034;-82
2024/02/21 05:31:26;;;;;;;6.15;3.65;;;;;;;;;;2071506;28;20145;-85
2024/02/21 05:32:45;;;;;;;10.43;4.15;;;;;;;;;;2070072;28;20026;-79
2024/02/21 05:34:04;;;;;;;6.35;3.47;;;;;;;;;;2070893;28;20026;-80
2024/02/21 05:35:27;;;;;;;5.07;3.45;;;;;;;;;;2069594;28;20025;-79
2024/02/21 05:36:46;;;;;;;8.50;3.40;;;;;;;;;;2070476;28;20026;-81
2024/02/21 05:38:11;;;;;;;6.65;3.88;;;;;;;;;;2071072;28;20046;-80
2024/02/21 05:39:30;;;;;;;7.82;4.05;;;;;;;;;;2069880;28;20117;-79
2024/02/21 05:40:49;;;;;;;11.13;4.05;;;;;;;;;;2069314;28;20029;-81
2024/02/21 05:42:07;;;;;;;9.82;4.32;;;;;;;;;;2070830;28;20489;-80
2024/02/21 05:43:26;;;;;;;5.63;3.72;;;;;;;;;;2070670;28;20497;-78
2024/02/21 05:44:45;;;;;;;4.30;3.65;;;;;;;;;;2069553;28;20501;-79
2024/02/21 05:46:04;;;;;;;6.43;3.75;;;;;;;;;;2068953;28;20529;-79
2024/02/21 05:47:23;;;;;;;6.80;4.32;;;;;;;;;;2069827;28;20030;-78
2024/02/21 05:48:42;;;;;;;6.20;3.70;;;;;;;;;;2070274;28;20034;-78
2024/02/21 05:50:01;;;;;;;7.65;3.75;;;;;;;;;;2070535;28;20038;-80
2024/02/21 05:51:20;;;;;;;7.57;4.55;;;;;;;;;;2069798;28;20405;-80
2024/02/21 05:52:39;;;;;;;7.57;3.95;;;;;;;;;;2070917;28;20029;-80
2024/02/21 05:53:59;;;;;;;9.25;3.85;;;;;;;;;;2070190;28;20025;-79
2024/02/21 05:55:18;;;;;;;7.53;3.92;;;;;;;;;;2069356;28;20484;-81
2024/02/21 05:56:37;;;;;;;7.35;3.90;;;;;;;;;;2068883;28;20441;-80
2024/02/21 05:57:56;;;;;;;7.95;4.82;;;;;;;;;;2071319;28;20480;-81
2024/02/21 05:59:16;;;;;;;7.40;5.00;;;;;;;;;;2069166;28;20033;-80
2024/02/21 06:00:35;;;;;;;10.68;4.93;;;;;;;;;;2070843;28;20030;-79
2024/02/21 06:01:56;;;;;;;11.05;5.03;;;;;;;;;;2069187;28;20054;-79
2024/02/21 06:03:17;;;;;;;11.23;4.55;;;;;;;;;;2067240;28;20038;-81
2024/02/21 06:04:39;;;;;;;6.93;4.70;;;;;;;;;;2071314;28;20041;-79
2024/02/21 06:05:59;;;;;;;9.13;4.45;;;;;;;;;;2081133;28;20026;-79
2024/02/21 06:07:18;;;;;;;9.10;4.32;;;;;;;;;;2074688;28;20042;-79
2024/02/21 06:08:39;;;;;;;10.05;4.80;;;;;;;;;;2070448;28;20030;-82
2024/02/21 06:09:58;;;;;;;9.20;5.15;;;;;;;;;;2071486;28;20493;-82
2024/02/21 06:11:20;;;;;;;13.15;5.97;;;;;;;;;;2070067;28;20042;-83
2024/02/21 06:12:39;;;;;;;10.32;4.55;;;;;;;;;;2070172;28;20022;-78
2024/02/21 06:14:00;;;;;;;9.88;4.57;;;;;;;;;;2069805;28;20493;-78
2024/02/21 06:15:19;;;;;;;10.05;5.43;;;;;;;;;;2069748;28;20026;-78
2024/02/21 06:16:38;;;;;;;37.25;18.48;;;;;;;;;;2070157;28;20025;-80
2024/02/21 06:17:57;;;;;;;14.13;7.18;;;;;;;;;;2069579;28;20038;-78
2024/02/21 06:19:16;;;;;;;11.90;6.43;;;;;;;;;;2069001;28;20033;-78
2024/02/21 06:20:36;;;;;;;12.63;6.60;;;;;;;;;;2069161;28;20498;-78
2024/02/21 06:21:55;;;;;;;17.33;6.50;;;;;;;;;;2069865;28;20142;-78
2024/02/21 06:23:16;;;;;;;16.30;8.32;;;;;;;;;;2069839;28;20393;-78
2024/02/21 06:24:36;;;;;;;14.75;6.25;;;;;;;;;;2069407;28;20026;-78
2024/02/21 06:25:55;;;;;;;10.98;6.22;;;;;;;;;;2069998;28;20729;-79
2024/02/21 06:27:16;;;;;;;10.43;6.20;;;;;;;;;;2069779;28;20034;-79
2024/02/21 06:28:36;;;;;;;11.57;6.25;;;;;;;;;;2065267;28;20113;-78
2024/02/21 06:29:55;;;;;;;10.77;6.22;;;;;;;;;;2071123;28;20030;-81
2024/02/21 06:31:16;;;;;;;10.32;6.03;;;;;;;;;;2070247;28;20470;-79
2024/02/21 06:32:36;;;;;;;12.82;6.20;;;;;;;;;;2070217;28;20038;-78
2024/02/21 06:33:55;;;;;;;14.55;6.90;;;;;;;;;;2069772;28;20038;-79
2024/02/21 06:35:14;;;;;;;13.07;6.68;;;;;;;;;;2070295;28;20060;-78
2024/02/21 06:36:33;;;;;;;14.63;7.22;;;;;;;;;;2071111;28;20399;-78
2024/02/21 06:37:52;;;;;;;12.20;6.07;;;;;;;;;;2071316;28;20026;-77
2024/02/21 06:39:11;;;;;;;16.40;7.40;;;;;;;;;;2069719;28;20109;-78
2024/02/21 06:40:38;;;;;;;15.27;6.97;;;;;;;;;;2066972;28;20026;-79
2024/02/21 06:41:56;;;;;;;11.30;6.82;;;;;;;;;;2066533;28;20033;-78
2024/02/21 06:43:20;;;;;;;12.60;6.55;;;;;;;;;;2064794;28;20038;-79
2024/02/21 06:44:40;;;;;;;14.07;7.38;;;;;;;;;;2066559;28;20034;-80
2024/02/21 06:45:59;;;;;;;13.98;7.35;;;;;;;;;;2070428;28;20030;-78
2024/02/21 06:47:18;;;;;;;16.90;7.43;;;;;;;;;;2069631;28;20030;-78
2024/02/21 06:48:37;;;;;;;16.33;7.22;;;;;;;;;;2068544;28;20503;-80
2024/02/21 06:49:56;;;;;;;17.20;6.65;;;;;;;;;;2062840;28;20112;-79
2024/02/21 06:51:14;;;;;;;13.75;7.32;;;;;;;;;;2067460;28;20026;-79
2024/02/21 06:52:33;;;;;;;14.85;6.95;;;;;;;;;;2070357;28;20465;-79
2024/02/21 06:53:53;;;;;;;14.20;8.00;;;;;;;;;;2070032;28;20625;-79
2024/02/21 06:55:11;;;;;;;12.13;6.53;;;;;;;;;;2068030;28;20042;-78
2024/02/21 06:56:30;;;;;;;16.05;6.82;;;;;;;;;;2070139;28;20849;-77
2024/02/21 06:57:50;;;;;;;16.30;6.97;;;;;;;;;;2070999;28;20027;-79
2024/02/21 06:59:08;;;;;;;17.20;8.35;;;;;;;;;;2071045;28;20042;-80
2024/02/21 07:00:28;;;;;;;20.23;9.70;;;;;;;;;;2071287;28;20030;-79
2024/02/21 07:01:55;;;;;;;18.45;9.52;;;;;;;;;;2071012;28;20584;-79
2024/02/21 07:03:15;;;;;;;17.75;8.85;;;;;;;;;;2071040;28;20065;-79
2024/02/21 07:04:34;;;;;;;15.50;8.45;;;;;;;;;;2071781;28;20042;-79
2024/02/21 07:05:54;;;;;;;20.38;7.90;;;;;;;;;;2072529;28;20081;-79
2024/02/21 07:07:13;;;;;;;18.08;7.82;;;;;;;;;;2070859;28;20038;-78
2024/02/21 07:08:32;;;;;;;13.85;8.65;;;;;;;;;;2071851;28;20030;-78
2024/02/21 07:09:52;;;;;;;12.82;7.47;;;;;;;;;;2070995;28;20054;-80
2024/02/21 07:11:12;;;;;;;13.35;7.03;;;;;;;;;;2071348;28;20030;-79
2024/02/21 07:12:30;;;;;;;15.55;6.97;;;;;;;;;;2071446;28;20030;-79
2024/02/21 07:13:49;;;;;;;15.70;7.22;;;;;;;;;;2071418;28;20030;-79
2024/02/21 07:15:08;;;;;;;15.90;7.32;;;;;;;;;;2068438;28;20022;-79
2024/02/21 07:16:28;;;;;;;18.20;7.57;;;;;;;;;;2071212;28;20022;-79
2024/02/21 07:17:48;;;;;;;14.52;7.80;;;;;;;;;;2071214;28;20023;-79
2024/02/21 07:19:07;;;;;;;19.45;7.72;;;;;;;;;;2070217;28;20041;-79
2024/02/21 07:20:25;;;;;;;15.18;7.35;;;;;;;;;;2069108;28;20027;-79
2024/02/21 07:21:45;;;;;;;17.20;7.30;;;;;;;;;;2071028;28;20108;-78
2024/02/21 07:23:04;;;;;;;17.30;7.55;;;;;;;;;;2071119;28;20033;-78
2024/02/21 07:24:23;;;;;;;14.35;7.18;;;;;;;;;;2072635;28;20428;-80
2024/02/21 07:25:41;;;;;;;17.33;7.50;;;;;;;;;;2071096;28;20046;-78
2024/02/21 07:27:04;;;;;;;15.30;7.35;;;;;;;;;;2070273;28;20517;-80
2024/02/21 07:28:23;;;;;;;17.27;8.32;;;;;;;;;;2070096;28;20034;-79
2024/02/21 07:29:42;;;;;;;15.63;7.00;;;;;;;;;;2072258;28;20034;-79
2024/02/21 07:31:02;;;;;;;14.48;7.82;;;;;;;;;;2070710;28;20025;-78
2024/02/21 07:32:21;;;;;;;15.32;7.95;;;;;;;;;;2070063;28;20566;-79
2024/02/21 07:33:40;;;;;;;17.17;8.30;;;;;;;;;;2070061;28;20026;-78
2024/02/21 07:35:00;;;;;;;18.88;8.40;;;;;;;;;;2068292;28;20030;-79
2024/02/21 07:36:29;;;;;;;21.35;8.25;;;;;;;;;;2071481;28;20026;-78
2024/02/21 07:37:48;;;;;;;22.80;8.07;;;;;;;;;;2070610;28;20023;-78
2024/02/21 07:39:07;;;;;;;13.60;8.15;;;;;;;;;;2071374;28;20035;-78
2024/02/21 07:40:26;;;;;;;19.70;8.70;;;;;;;;;;2072395;28;20045;-79
2024/02/21 07:41:46;;;;;;;18.65;9.35;;;;;;;;;;2070027;28;20029;-78
2024/02/21 07:43:05;;;;;;;18.65;9.27;;;;;;;;;;2070355;28;20033;-79
2024/02/21 07:44:24;;;;;;;22.75;9.07;;;;;;;;;;2071030;28;20516;-80
2024/02/21 07:45:54;;;;;;;21.23;8.52;;;;;;;;;;2072657;28;20409;-83
2024/02/21 07:47:18;;;;;;;17.67;8.35;;;;;;;;;;2071737;28;20046;-82
2024/02/21 07:48:37;;;;;;;19.65;8.65;;;;;;;;;;2068722;28;20026;-86
2024/02/21 07:49:56;;;;;;;19.83;8.02;;;;;;;;;;2069233;28;20030;-82
2024/02/21 07:51:18;;;;;;;17.58;7.60;;;;;;;;;;2071403;28;20030;-83
2024/02/21 07:52:40;;;;;;;14.98;7.18;;;;;;;;;;2069373;28;20022;-82